Time;durP1;ratioP1;P1;durP2;ratioP2;P2;SDS_P1;SDS_P2;PMS_P1;PMS_P2;Temp;Humidity;BMP_temperature;BMP_pressure;BME280_temperature;BME280_humidity;BME280_pressure;Samples;Min_cycle;Max_cycle;Signal;HPM_P1;HPM_P2
2021/12/23 00:00:06;;;;;;;34.15;21.17;;;-1.20;99.90;;;-1.36;74.32;101704.44;4900085;29;20198;-63
2021/12/23 00:02:40;;;;;;;33.97;22.13;;;-1.10;99.90;;;-1.52;74.79;101692.31;4900231;29;20249;-64
2021/12/23 00:05:15;;;;;;;40.05;21.15;;;-1.20;99.90;;;-1.70;75.10;101683.81;4898926;29;20214;-63
2021/12/23 00:07:47;;;;;;;35.17;20.48;;;-1.30;99.90;;;-1.58;74.96;101682.13;4897991;29;20202;-64
2021/12/23 00:10:18;;;;;;;36.65;21.38;;;-1.30;99.90;;;-1.46;74.41;101687.47;4899091;29;20202;-62
2021/12/23 00:12:50;;;;;;;31.77;21.77;;;-1.30;99.90;;;-1.34;73.81;101675.97;4898777;29;20731;-63
2021/12/23 00:15:28;;;;;;;35.40;22.15;;;-1.20;99.90;;;-1.34;73.87;101670.66;4899791;29;20229;-64
2021/12/23 00:18:04;;;;;;;32.58;20.45;;;-1.10;99.90;;;-1.54;74.31;101673.00;4899963;29;20210;-65
2021/12/23 00:23:28;;;;;;;31.80;20.60;;;-1.20;99.90;;;-1.51;74.33;101657.72;4898656;29;20678;-65
2021/12/23 00:26:01;;;;;;;27.90;19.27;;;-1.20;99.90;;;-1.57;74.24;101660.78;4899026;29;20198;-63
2021/12/23 00:28:33;;;;;;;26.63;17.52;;;-1.30;99.90;;;-1.57;73.98;101663.44;4898761;29;20265;-64
2021/12/23 00:31:11;;;;;;;25.58;19.15;;;-1.30;99.90;;;-1.61;74.07;101650.50;4899633;29;20288;-63
2021/12/23 00:33:42;;;;;;;28.25;19.20;;;-1.30;99.90;;;-1.52;73.76;101658.66;4898543;29;20225;-63
2021/12/23 00:36:17;;;;;;;29.55;20.20;;;-1.30;99.90;;;-1.53;74.26;101651.66;4899499;29;20698;-63
2021/12/23 00:38:55;;;;;;;28.05;19.15;;;-1.30;99.90;;;-1.52;73.54;101655.16;4899871;29;20177;-63
2021/12/23 00:41:32;;;;;;;25.60;18.48;;;-1.30;99.90;;;-1.45;73.54;101648.44;4898436;29;20204;-62
2021/12/23 00:44:02;;;;;;;35.22;19.90;;;-1.30;99.90;;;-1.59;73.10;101646.75;4898157;29;20308;-64
2021/12/23 00:46:32;;;;;;;27.45;17.88;;;-1.30;99.90;;;-1.70;73.81;101640.50;4898416;29;20178;-63
2021/12/23 00:49:06;;;;;;;30.10;20.95;;;-1.40;99.90;;;-1.44;74.32;101648.34;4882973;29;20190;-63
2021/12/23 00:51:37;;;;;;;30.98;20.10;;;-1.30;99.90;;;-1.51;73.15;101639.13;4898336;29;20666;-64
2021/12/23 00:54:08;;;;;;;32.17;21.48;;;-1.30;99.90;;;-1.41;73.71;101639.34;4914515;23;20245;-67
2021/12/23 00:56:38;;;;;;;26.95;20.30;;;-1.30;99.90;;;-1.40;72.64;101639.22;4899463;29;20214;-66
2021/12/23 00:59:10;;;;;;;28.15;20.45;;;-1.20;99.90;;;-1.50;73.69;101642.66;4899385;29;20198;-67
2021/12/23 01:01:38;;;;;;;22.95;18.80;;;-1.20;99.90;;;-1.61;74.27;101637.22;4899348;29;20178;-67
2021/12/23 01:04:08;;;;;;;28.30;18.70;;;-1.30;99.90;;;-1.48;73.14;101632.75;4898996;29;20301;-67
2021/12/23 01:06:37;;;;;;;29.08;18.17;;;-1.30;99.90;;;-1.34;72.62;101622.00;4900072;29;20171;-67
2021/12/23 01:09:05;;;;;;;27.60;18.05;;;-1.20;99.90;;;-1.41;73.48;101611.00;4900557;29;20182;-68
2021/12/23 01:11:34;;;;;;;27.02;18.13;;;-1.20;99.90;;;-1.33;72.63;101607.78;4899546;29;20190;-67
2021/12/23 01:14:25;;;;;;;26.42;19.30;;;-1.20;99.90;;;-1.51;72.92;101609.09;4898769;29;20739;-69
2021/12/23 01:17:12;;;;;;;29.00;19.02;;;-1.20;99.90;;;-1.54;73.77;101599.50;4898676;29;20206;-65
2021/12/23 01:19:49;;;;;;;29.60;19.25;;;-1.30;99.90;;;-1.48;73.91;101607.06;4898809;29;20198;-66
2021/12/23 01:22:19;;;;;;;26.15;19.58;;;-1.30;99.90;;;-1.41;72.95;101611.00;4898928;29;20198;-67
2021/12/23 01:24:48;;;;;;;29.35;18.80;;;-1.30;99.90;;;-1.41;73.37;101618.97;4898861;29;20206;-65
2021/12/23 01:27:18;;;;;;;29.75;19.30;;;-1.20;99.90;;;-1.37;72.58;101616.94;4899210;29;20281;-65
2021/12/23 01:29:47;;;;;;;33.30;20.08;;;-1.20;99.90;;;-1.42;73.19;101619.06;4899290;29;20190;-66
2021/12/23 01:32:15;;;;;;;26.83;20.42;;;-1.20;99.90;;;-1.43;73.11;101607.59;4899888;29;20238;-67
2021/12/23 01:34:45;;;;;;;28.98;20.52;;;-1.30;99.90;;;-1.36;72.40;101608.88;4899318;29;20288;-68
2021/12/23 01:37:13;;;;;;;28.63;19.67;;;-1.20;99.90;;;-1.22;72.87;101604.38;4898487;29;20263;-65
2021/12/23 01:39:42;;;;;;;26.70;18.25;;;-1.10;99.90;;;-1.58;72.77;101603.34;4899584;29;20205;-67
2021/12/23 01:42:10;;;;;;;30.25;19.92;;;-1.30;99.90;;;-1.60;73.78;101601.78;4897986;29;20195;-67
2021/12/23 01:44:38;;;;;;;25.58;18.95;;;-1.30;99.90;;;-1.66;73.72;101597.72;4897966;29;20269;-65
2021/12/23 01:47:07;;;;;;;36.10;20.30;;;-1.40;99.90;;;-1.31;73.08;101603.22;4897876;29;20253;-67
2021/12/23 01:49:35;;;;;;;22.80;16.40;;;-1.20;99.90;;;-1.33;73.41;101599.81;4898447;29;20193;-67
2021/12/23 01:52:07;;;;;;;29.30;18.33;;;-1.30;99.90;;;-1.51;72.85;101588.69;4898424;29;20190;-66
2021/12/23 01:54:35;;;;;;;29.00;18.98;;;-1.20;99.90;;;-1.43;73.30;101593.47;4899157;29;20226;-66
2021/12/23 01:57:05;;;;;;;27.17;19.85;;;-1.30;99.90;;;-1.40;72.66;101591.44;4897756;29;20214;-67
2021/12/23 01:59:34;;;;;;;36.50;20.90;;;-1.30;99.90;;;-1.40;72.71;101591.44;4898780;29;20198;-66
2021/12/23 02:02:03;;;;;;;29.85;19.73;;;-1.20;99.90;;;-1.39;71.36;101582.50;4899410;29;20593;-66
2021/12/23 02:04:32;;;;;;;25.10;17.95;;;-1.20;99.90;;;-1.32;71.94;101583.78;4899469;29;20221;-67
2021/12/23 02:07:01;;;;;;;27.00;18.25;;;-1.20;99.90;;;-1.41;72.66;101572.97;4899431;29;20179;-68
2021/12/23 02:09:31;;;;;;;27.90;21.45;;;-1.20;99.90;;;-1.44;72.72;101574.03;4899677;29;20198;-67
2021/12/23 02:11:59;;;;;;;27.33;20.90;;;-1.20;99.90;;;-1.46;72.64;101565.34;4898579;29;20205;-67
2021/12/23 02:14:28;;;;;;;28.02;19.20;;;-1.20;99.90;;;-1.56;72.68;101552.81;4898181;29;20240;-66
2021/12/23 02:16:56;;;;;;;27.92;18.67;;;-1.30;99.90;;;-1.57;72.57;101546.66;4898046;29;20698;-67
2021/12/23 02:19:25;;;;;;;26.20;18.73;;;-1.30;99.90;;;-1.63;73.18;101536.47;4898398;29;20182;-66
2021/12/23 02:21:55;;;;;;;29.23;20.02;;;-1.40;99.90;;;-1.80;72.99;101534.16;4898095;29;20186;-67
2021/12/23 02:24:23;;;;;;;28.08;18.98;;;-1.50;99.90;;;-1.61;73.75;101534.56;4898782;29;20205;-65
2021/12/23 02:26:52;;;;;;;27.55;18.83;;;-1.40;99.90;;;-1.65;73.11;101533.09;4898229;29;20285;-65
2021/12/23 02:29:20;;;;;;;25.67;18.42;;;-1.40;99.90;;;-1.36;72.94;101538.97;4898937;29;20186;-68
2021/12/23 02:31:51;;;;;;;32.78;20.67;;;-1.30;99.90;;;-1.47;72.40;101526.47;4905821;29;20213;-67
2021/12/23 02:34:21;;;;;;;26.40;19.80;;;-1.30;99.90;;;-1.55;72.81;101534.09;4905273;29;20218;-66
2021/12/23 02:36:52;;;;;;;23.55;19.02;;;-1.30;99.90;;;-1.51;72.44;101519.69;4905793;29;20578;-66
2021/12/23 02:39:24;;;;;;;27.02;17.92;;;-1.30;99.90;;;-1.60;72.67;101522.16;4907235;29;20186;-66
2021/12/23 02:41:53;;;;;;;29.25;19.95;;;-1.30;99.90;;;-1.47;72.17;101509.69;4906715;29;20197;-67
2021/12/23 02:44:23;;;;;;;25.35;19.73;;;-1.30;99.90;;;-1.49;73.12;101508.94;4907982;29;20217;-65
2021/12/23 02:46:51;;;;;;;25.00;17.88;;;-1.30;99.90;;;-1.47;72.80;101505.22;4919980;29;20271;-66
2021/12/23 02:49:20;;;;;;;26.15;20.90;;;-1.30;99.90;;;-1.64;72.84;101505.56;4906591;29;20201;-66
2021/12/23 02:51:49;;;;;;;23.80;18.90;;;-1.40;99.90;;;-1.57;72.60;101490.91;4905447;29;20186;-67
2021/12/23 02:54:17;;;;;;;29.73;20.73;;;-1.40;99.90;;;-1.56;72.86;101479.34;4904963;29;20226;-66
2021/12/23 02:56:47;;;;;;;27.10;20.33;;;-1.40;99.90;;;-1.41;73.06;101475.59;4906348;29;20186;-67
2021/12/23 02:59:15;;;;;;;33.22;20.17;;;-1.30;99.90;;;-1.49;72.33;101469.13;4904848;29;20227;-67
2021/12/23 03:01:43;;;;;;;32.40;20.55;;;-1.30;99.90;;;-1.52;72.14;101458.75;4904962;29;20182;-66
2021/12/23 03:04:12;;;;;;;23.95;19.13;;;-1.30;99.90;;;-1.56;72.15;101451.97;4905796;29;20222;-67
2021/12/23 03:06:41;;;;;;;31.98;21.95;;;-1.40;99.90;;;-1.65;72.31;101445.53;4904931;29;20197;-67
2021/12/23 03:09:09;;;;;;;31.15;19.65;;;-1.40;99.90;;;-1.60;72.96;101445.19;4906127;29;20182;-67
2021/12/23 03:11:40;;;;;;;25.52;19.35;;;-1.40;99.90;;;-1.56;72.73;101442.19;4905163;29;20294;-67
2021/12/23 03:14:11;;;;;;;34.90;21.90;;;-1.40;99.90;;;-1.35;72.62;101435.31;4904941;29;20236;-68
2021/12/23 03:16:39;;;;;;;29.23;20.00;;;-1.30;99.90;;;-1.39;72.28;101427.69;4904046;29;20213;-65
2021/12/23 03:19:08;;;;;;;28.90;19.92;;;-1.30;99.90;;;-1.44;72.29;101422.69;4903754;29;20265;-68
2021/12/23 03:21:37;;;;;;;30.10;21.70;;;-1.20;99.90;;;-1.47;71.72;101428.25;4904197;29;20178;-66
2021/12/23 03:24:06;;;;;;;30.35;19.88;;;-1.20;99.90;;;-1.57;72.26;101416.59;4904011;29;20750;-67
2021/12/23 03:26:35;;;;;;;32.33;22.98;;;-1.30;99.90;;;-1.65;72.44;101405.72;4903170;29;20186;-66
2021/12/23 03:29:03;;;;;;;29.08;20.75;;;-1.30;99.90;;;-1.26;72.39;101396.63;4903574;29;20179;-66
2021/12/23 03:31:34;;;;;;;34.55;21.65;;;-1.20;99.90;;;-1.50;71.63;101387.81;4903885;29;20644;-67
2021/12/23 03:34:02;;;;;;;35.72;22.17;;;-1.30;99.90;;;-1.45;72.82;101383.84;4903985;29;20601;-66
2021/12/23 03:36:31;;;;;;;31.95;21.38;;;-1.30;99.90;;;-1.44;71.86;101376.72;4903895;29;20186;-67
2021/12/23 03:38:59;;;;;;;35.60;21.27;;;-1.30;99.90;;;-1.22;71.99;101378.66;4904049;29;20222;-67
2021/12/23 03:41:27;;;;;;;43.33;22.90;;;-1.10;99.90;;;-1.25;71.69;101370.88;4901762;29;20206;-68
2021/12/23 03:43:56;;;;;;;32.60;21.60;;;-1.10;99.90;;;-1.12;70.53;101369.03;4900630;29;20213;-66
2021/12/23 03:46:24;;;;;;;34.05;21.50;;;-1.00;99.90;;;-1.13;72.10;101365.53;4900853;29;20631;-67
2021/12/23 03:48:54;;;;;;;36.53;22.27;;;-1.00;99.90;;;-1.17;72.37;101363.22;4900418;29;20182;-66
2021/12/23 03:51:22;;;;;;;32.20;23.00;;;-1.00;99.90;;;-1.06;70.45;101347.28;4900730;29;20206;-67
2021/12/23 03:53:51;;;;;;;29.83;22.27;;;-0.90;99.90;;;-1.37;71.33;101346.97;4900007;29;20301;-66
2021/12/23 03:56:19;;;;;;;30.70;21.80;;;-1.10;99.90;;;-1.22;72.75;101352.94;4901100;29;20673;-67
2021/12/23 03:58:48;;;;;;;29.75;20.23;;;-1.10;99.90;;;-1.28;72.59;101347.22;4900793;29;20198;-67
2021/12/23 04:01:16;;;;;;;32.10;22.77;;;-1.10;99.90;;;-1.25;71.53;101349.66;4900961;29;20187;-67
2021/12/23 04:03:45;;;;;;;39.63;22.83;;;-1.10;99.90;;;-1.18;72.73;101340.28;4900882;29;20183;-65
2021/12/23 04:06:15;;;;;;;34.30;22.63;;;-1.00;99.90;;;-1.33;71.12;101332.50;4900976;29;20595;-67
2021/12/23 04:08:43;;;;;;;36.58;21.77;;;-1.10;99.90;;;-1.43;71.22;101318.22;4901360;29;20602;-67
2021/12/23 04:11:12;;;;;;;30.17;20.55;;;-1.20;99.90;;;-1.47;70.85;101318.56;4900768;29;20681;-66
2021/12/23 04:13:41;;;;;;;28.02;20.20;;;-1.20;99.90;;;-1.35;72.16;101317.63;4901504;29;20637;-66
2021/12/23 04:16:10;;;;;;;30.05;20.50;;;-1.30;99.90;;;-1.28;71.67;101318.03;4901154;29;20190;-67
2021/12/23 04:18:38;;;;;;;30.20;21.40;;;-1.20;99.90;;;-1.19;70.86;101307.56;4901077;29;20206;-68
2021/12/23 04:21:07;;;;;;;30.98;22.88;;;-1.00;99.90;;;-1.42;70.66;101301.34;4902885;29;20186;-69
2021/12/23 04:23:36;;;;;;;32.65;24.48;;;-1.10;99.90;;;-1.45;71.72;101292.72;4902548;29;20194;-67
2021/12/23 04:26:07;;;;;;;36.85;23.33;;;-1.20;99.90;;;-1.20;71.27;101292.56;4901897;29;20269;-67
2021/12/23 04:28:45;;;;;;;35.80;24.73;;;-1.20;99.90;;;-1.12;71.44;101289.34;4900934;29;20189;-68
2021/12/23 04:31:16;;;;;;;36.70;23.05;;;-1.00;99.90;;;-1.17;70.77;101289.69;4900638;29;20198;-66
2021/12/23 04:33:46;;;;;;;33.20;21.40;;;-1.00;99.90;;;-1.19;70.34;101290.78;4902879;29;20190;-67
2021/12/23 04:36:15;;;;;;;32.95;23.65;;;-1.00;99.90;;;-1.16;70.48;101295.88;4902414;29;20667;-67
2021/12/23 04:38:47;;;;;;;29.17;21.65;;;-1.00;99.90;;;-1.12;70.95;101300.81;4902609;29;20222;-67
2021/12/23 04:41:16;;;;;;;29.92;22.45;;;-1.00;99.90;;;-1.21;70.92;101298.03;4902187;29;20182;-66
2021/12/23 04:43:44;;;;;;;31.60;21.20;;;-1.00;99.90;;;-1.24;70.54;101287.63;4903198;29;20186;-67
2021/12/23 04:46:13;;;;;;;37.58;23.77;;;-1.10;99.90;;;-1.18;70.15;101287.16;4902303;29;20190;-68
2021/12/23 04:48:44;;;;;;;42.03;25.02;;;-1.10;99.90;;;-1.21;70.73;101271.47;4902523;29;20194;-67
2021/12/23 04:51:14;;;;;;;33.42;24.30;;;-1.10;99.90;;;-1.31;70.54;101264.19;4901151;29;20216;-64
2021/12/23 04:53:45;;;;;;;37.55;23.95;;;-1.10;99.90;;;-1.26;71.24;101255.03;4899743;29;20178;-67
2021/12/23 04:56:15;;;;;;;36.47;25.65;;;-1.10;99.90;;;-1.21;71.27;101245.72;4898905;29;20239;-67
2021/12/23 04:58:45;;;;;;;32.30;23.38;;;-1.10;99.90;;;-0.99;70.77;101244.94;4899873;29;20265;-67
2021/12/23 05:01:19;;;;;;;36.63;24.92;;;-0.90;99.90;;;-0.97;70.18;101237.69;4900983;29;20556;-67
2021/12/23 05:03:49;;;;;;;34.08;22.42;;;-0.90;99.90;;;-1.00;69.38;101237.91;4900753;29;20190;-66
2021/12/23 05:06:18;;;;;;;33.33;22.85;;;-0.90;99.90;;;-0.89;69.84;101232.63;4898438;29;20233;-65
2021/12/23 05:08:47;;;;;;;31.38;22.85;;;-0.90;99.90;;;-0.81;69.96;101242.63;4899175;29;20190;-68
2021/12/23 05:11:16;;;;;;;39.60;24.98;;;-0.80;99.90;;;-0.78;70.58;101232.63;4899483;29;20190;-66
2021/12/23 05:13:47;;;;;;;32.38;20.90;;;-0.70;99.90;;;-0.91;69.32;101229.22;4901161;29;20228;-65
2021/12/23 05:16:15;;;;;;;36.55;22.85;;;-0.80;99.90;;;-1.07;69.93;101220.78;4901258;29;20182;-67
2021/12/23 05:18:44;;;;;;;32.85;21.83;;;-0.90;99.90;;;-1.11;69.94;101206.88;4899809;29;20548;-67
2021/12/23 05:21:13;;;;;;;38.60;25.60;;;-0.90;99.90;;;-1.06;69.93;101203.84;4900234;29;20194;-69
2021/12/23 05:23:42;;;;;;;37.50;23.27;;;-0.90;99.90;;;-0.90;70.46;101201.69;4899161;29;20228;-66
2021/12/23 05:26:12;;;;;;;30.77;21.67;;;-0.90;99.90;;;-0.86;69.58;101203.13;4900078;29;20187;-66
2021/12/23 05:28:40;;;;;;;28.50;21.23;;;-0.80;99.90;;;-0.62;70.73;101210.97;4899580;29;20647;-67
2021/12/23 05:31:08;;;;;;;34.63;24.13;;;-0.60;99.90;;;-0.69;69.95;101212.44;4899684;29;20194;-66
2021/12/23 05:33:37;;;;;;;37.35;23.27;;;-0.60;99.90;;;-0.75;69.51;101211.13;4899077;29;20242;-65
2021/12/23 05:36:06;;;;;;;33.08;22.02;;;-0.60;99.90;;;-0.84;69.39;101203.88;4898453;29;20250;-66
2021/12/23 05:38:34;;;;;;;36.08;25.55;;;-0.70;99.90;;;-0.90;70.17;101188.41;4898650;29;20221;-67
2021/12/23 05:41:03;;;;;;;37.08;23.00;;;-0.70;99.90;;;-1.03;70.40;101182.38;4899751;29;20289;-67
2021/12/23 05:43:32;;;;;;;34.92;24.15;;;-0.80;99.90;;;-0.74;69.54;101186.25;4901206;29;20202;-66
2021/12/23 05:46:01;;;;;;;38.70;23.90;;;-0.70;99.90;;;-0.67;69.46;101176.78;4900367;29;20226;-66
2021/12/23 05:48:29;;;;;;;34.35;24.10;;;-0.60;99.90;;;-0.75;68.80;101173.06;4899785;29;20622;-67
2021/12/23 05:50:57;;;;;;;38.03;25.00;;;-0.70;99.90;;;-0.58;70.52;101176.03;4900423;29;20312;-67
2021/12/23 05:53:26;;;;;;;37.42;24.98;;;-0.60;99.90;;;-0.70;68.94;101177.03;4900668;29;20187;-66
2021/12/23 05:55:54;;;;;;;27.30;22.42;;;-0.60;99.90;;;-0.66;69.94;101178.47;4898351;29;20550;-66
2021/12/23 05:58:22;;;;;;;35.47;24.35;;;-0.60;99.90;;;-0.47;68.99;101172.53;4912493;29;20202;-66
2021/12/23 06:00:53;;;;;;;32.63;22.60;;;-0.40;99.90;;;-0.52;68.30;101164.06;4899451;29;20273;-66
2021/12/23 06:03:21;;;;;;;35.55;23.88;;;-0.50;99.90;;;-0.66;68.43;101167.00;4899274;29;20699;-67
2021/12/23 06:05:50;;;;;;;34.25;23.42;;;-0.60;99.90;;;-0.85;69.47;101162.31;4900165;29;20703;-67
2021/12/23 06:08:18;;;;;;;36.67;23.35;;;-0.70;99.90;;;-0.86;69.60;101150.00;4900207;29;20682;-66
2021/12/23 06:10:46;;;;;;;35.00;24.70;;;-0.70;99.90;;;-0.59;69.65;101139.81;4901293;29;20170;-66
2021/12/23 06:13:15;;;;;;;37.95;25.17;;;-0.60;99.90;;;-0.41;69.18;101142.78;4901348;29;20190;-67
2021/12/23 06:15:43;;;;;;;38.78;23.48;;;-0.50;99.90;;;-0.70;68.67;101131.88;4897961;29;20262;-67
2021/12/23 06:18:13;;;;;;;34.67;25.75;;;-0.60;99.90;;;-0.69;68.81;101124.75;4898009;29;20276;-66
2021/12/23 06:20:41;;;;;;;38.00;22.80;;;-0.60;99.90;;;-0.81;69.54;101126.56;4899584;29;20221;-66
2021/12/23 06:23:10;;;;;;;33.95;23.45;;;-0.70;99.90;;;-0.57;68.35;101123.72;4898140;29;20202;-66
2021/12/23 06:25:38;;;;;;;32.65;23.17;;;-0.60;99.90;;;-0.75;69.93;101110.13;4899170;29;20714;-65
2021/12/23 06:28:12;;;;;;;33.70;22.25;;;-0.60;99.90;;;-0.73;69.08;101108.22;4898580;29;20221;-67
2021/12/23 06:30:41;;;;;;;33.55;23.05;;;-0.60;99.90;;;-0.82;69.34;101111.59;4899141;29;20195;-67
2021/12/23 06:33:11;;;;;;;36.08;24.85;;;-0.70;99.90;;;-0.66;68.77;101106.72;4899695;29;20190;-66
2021/12/23 06:35:41;;;;;;;40.97;24.48;;;-0.60;99.90;;;-0.63;68.48;101108.31;4899418;29;20713;-67
2021/12/23 06:38:12;;;;;;;43.05;24.20;;;-0.60;99.90;;;-0.68;68.66;101110.50;4899359;29;20170;-66
2021/12/23 06:40:42;;;;;;;30.25;24.02;;;-0.60;99.90;;;-0.63;68.83;101109.13;4899753;29;20210;-68
2021/12/23 06:43:10;;;;;;;31.70;22.02;;;-0.60;99.90;;;-0.64;69.00;101106.59;4898871;29;20198;-66
2021/12/23 06:45:39;;;;;;;28.42;22.90;;;-0.60;99.90;;;-0.52;67.85;101105.59;4898562;29;20221;-67
2021/12/23 06:48:07;;;;;;;32.80;21.15;;;-0.50;99.90;;;-0.26;68.33;101106.97;4897976;29;20197;-67
2021/12/23 06:50:36;;;;;;;25.25;20.48;;;-0.30;99.90;;;-0.46;67.24;101100.63;4897910;29;20182;-66
2021/12/23 06:53:06;;;;;;;29.65;22.08;;;-0.40;99.90;;;-0.58;68.06;101106.94;4897598;29;20190;-67
2021/12/23 06:55:34;;;;;;;36.63;22.80;;;-0.40;99.90;;;-0.50;67.87;101107.16;4868290;23;1273641;-62
2021/12/23 06:58:02;;;;;;;31.73;23.00;;;-0.40;99.90;;;-0.33;68.43;101107.56;4898316;29;20194;-64
2021/12/23 07:00:35;;;;;;;31.60;22.50;;;-0.30;99.90;;;-0.35;67.13;101096.25;4898293;29;20680;-63
2021/12/23 07:03:04;;;;;;;36.03;23.30;;;-0.30;99.90;;;-0.37;68.10;101082.22;4896726;29;20611;-63
2021/12/23 07:05:33;;;;;;;36.00;23.95;;;-0.40;99.90;;;-0.26;68.41;101069.72;4898100;29;20273;-63
2021/12/23 07:08:08;;;;;;;30.95;22.17;;;-0.30;99.90;;;-0.24;67.76;101066.94;4898114;29;20178;-64
2021/12/23 07:10:39;;;;;;;31.13;21.02;;;-0.30;99.90;;;-0.24;67.36;101053.66;4898195;29;20185;-64
2021/12/23 07:13:08;;;;;;;37.20;22.13;;;-0.20;99.90;;;-0.35;67.20;101053.69;4897553;29;20182;-62
2021/12/23 07:15:36;;;;;;;36.53;25.33;;;-0.30;99.90;;;-0.26;67.37;101064.41;4897750;29;20218;-63
2021/12/23 07:18:05;;;;;;;37.95;21.83;;;-0.20;99.90;;;-0.44;67.81;101056.13;4901083;29;20253;-64
2021/12/23 07:20:33;;;;;;;27.30;20.25;;;-0.30;99.90;;;-0.26;67.08;101053.75;4901154;29;20198;-63
2021/12/23 07:23:03;;;;;;;32.08;21.70;;;-0.20;99.90;;;-0.16;67.29;101078.63;4901140;29;20179;-63
2021/12/23 07:25:31;;;;;;;37.45;21.95;;;-0.20;99.90;;;-0.35;66.80;101053.69;4901084;29;20330;-63
2021/12/23 07:28:01;;;;;;;32.40;22.25;;;-0.20;99.90;;;-0.29;67.99;101042.56;4900967;29;20190;-64
2021/12/23 07:30:29;;;;;;;32.70;22.60;;;-0.20;99.90;;;-0.23;67.04;101063.28;4901423;29;20178;-63
2021/12/23 07:33:00;;;;;;;27.98;20.80;;;-0.20;99.90;;;-0.24;67.66;101062.44;4901378;29;20179;-64
2021/12/23 07:35:29;;;;;;;32.65;24.27;;;-0.20;99.90;;;-0.23;66.87;101057.97;4901064;29;20284;-64
2021/12/23 07:38:00;;;;;;;33.75;21.85;;;-0.20;99.90;;;-0.47;67.43;101056.41;4900963;29;20182;-62
2021/12/23 07:40:30;;;;;;;35.00;20.90;;;-0.30;99.90;;;-0.54;67.32;101039.28;4900759;29;20769;-60
2021/12/23 07:43:09;;;;;;;29.67;21.65;;;-0.40;99.90;;;-0.28;68.64;101049.53;4899855;29;20289;-63
2021/12/23 07:45:41;;;;;;;30.42;20.23;;;-0.40;99.90;;;-0.32;67.53;101040.13;4900891;29;20289;-62
2021/12/23 07:48:09;;;;;;;32.33;20.92;;;-0.30;99.90;;;-0.23;67.95;101034.88;4900884;29;20209;-64
2021/12/23 07:50:41;;;;;;;32.38;21.58;;;-0.20;99.90;;;-0.07;66.52;101045.06;4901073;29;20190;-65
2021/12/23 07:53:10;;;;;;;34.97;23.95;;;-0.10;99.90;;;-0.23;67.05;101042.00;4901402;29;20189;-63
2021/12/23 07:55:42;;;;;;;33.53;21.33;;;-0.10;99.90;;;-0.36;67.70;101047.53;4901338;29;20214;-64
2021/12/23 07:58:12;;;;;;;26.42;19.45;;;-0.30;99.90;;;-0.50;68.21;101038.06;4900043;29;20200;-63
2021/12/23 08:00:40;;;;;;;36.65;23.48;;;-0.40;99.90;;;-0.43;68.10;101030.38;4901264;29;20217;-64
2021/12/23 08:03:09;;;;;;;32.35;20.77;;;-0.40;99.90;;;-0.41;67.45;101027.59;4902010;29;20590;-63
2021/12/23 08:05:38;;;;;;;33.60;20.27;;;-0.30;99.90;;;-0.48;67.89;101032.59;4901841;29;20229;-63
2021/12/23 08:08:06;;;;;;;32.08;23.27;;;-0.30;99.90;;;-0.44;67.99;101024.22;4901431;29;20198;-64
2021/12/23 08:10:35;;;;;;;29.30;20.77;;;-0.40;99.90;;;-0.33;68.00;101019.81;4902051;29;20193;-63
2021/12/23 08:13:04;;;;;;;32.70;21.27;;;-0.30;99.90;;;-0.57;68.82;101009.44;4901964;29;20179;-65
2021/12/23 08:15:33;;;;;;;32.05;22.70;;;-0.40;99.90;;;-0.47;67.80;101005.03;4900985;29;20610;-64
2021/12/23 08:18:02;;;;;;;33.70;21.30;;;-0.40;99.90;;;-0.24;67.59;101008.44;4900690;29;20193;-63
2021/12/23 08:20:30;;;;;;;33.08;22.25;;;-0.30;99.90;;;-0.42;68.52;101000.19;4900366;29;20265;-63
2021/12/23 08:22:59;;;;;;;29.98;22.50;;;-0.30;99.90;;;-0.22;67.61;100987.84;4900693;29;20187;-64
2021/12/23 08:25:27;;;;;;;39.90;21.33;;;-0.30;99.90;;;-0.40;68.17;100990.25;4900387;29;20290;-63
2021/12/23 08:27:56;;;;;;;29.95;20.02;;;-0.30;99.90;;;-0.51;67.93;100993.81;4899542;29;20254;-61
2021/12/23 08:30:25;;;;;;;34.13;22.38;;;-0.40;99.90;;;-0.28;67.42;100986.56;4900607;29;20599;-62
2021/12/23 08:32:54;;;;;;;29.88;20.70;;;-0.30;99.90;;;-0.36;68.43;100977.53;4900413;29;20269;-63
2021/12/23 08:35:23;;;;;;;34.20;20.42;;;-0.30;99.90;;;-0.33;68.34;100977.28;4900185;29;20218;-62
2021/12/23 08:37:52;;;;;;;38.92;25.40;;;-0.30;99.90;;;-0.36;68.51;100967.75;4900160;29;20182;-62
2021/12/23 08:40:23;;;;;;;31.00;21.17;;;-0.30;99.90;;;-0.40;68.01;100960.19;4899958;29;20210;-62
2021/12/23 08:42:53;;;;;;;37.30;23.23;;;-0.30;99.90;;;-0.48;68.23;100953.69;4899879;29;20186;-63
2021/12/23 08:45:22;;;;;;;38.90;23.83;;;-0.40;99.90;;;-0.44;68.34;100952.44;4899549;29;20691;-63
2021/12/23 08:47:54;;;;;;;38.40;22.23;;;-0.40;99.90;;;-0.09;67.52;100954.75;4898714;29;20194;-63
2021/12/23 08:50:26;;;;;;;27.98;20.75;;;-0.20;99.90;;;-0.13;67.99;100947.16;4899736;29;20175;-63
2021/12/23 08:52:55;;;;;;;28.58;20.33;;;-0.10;99.90;;;-0.21;67.60;100952.31;4899854;29;20206;-63
2021/12/23 08:55:27;;;;;;;32.85;21.00;;;-0.20;99.90;;;-0.21;67.77;100941.69;4900164;29;20274;-64
2021/12/23 08:57:55;;;;;;;28.65;21.17;;;-0.10;99.90;;;-0.09;67.54;100943.25;4900195;29;20194;-63
2021/12/23 09:00:26;;;;;;;33.53;22.83;;;-0.10;99.90;;;-0.20;67.36;100941.56;4899856;29;20265;-64
2021/12/23 09:02:54;;;;;;;29.48;20.83;;;-0.10;99.90;;;-0.10;67.20;100928.31;4900389;29;20715;-64
2021/12/23 09:05:24;;;;;;;33.53;22.30;;;-0.10;99.90;;;-0.03;67.46;100916.13;4899636;29;20214;-62
2021/12/23 09:07:53;;;;;;;32.17;22.00;;;-0.10;99.90;;;-0.06;66.99;100919.91;4899703;29;20189;-64
2021/12/23 09:10:22;;;;;;;29.92;19.73;;;0.00;99.90;;;-0.20;66.67;100922.09;4899658;29;20179;-64
2021/12/23 09:12:52;;;;;;;27.80;20.70;;;-0.10;99.90;;;0.11;66.64;100907.78;4899188;29;20644;-63
2021/12/23 09:15:21;;;;;;;32.90;21.00;;;0.10;99.90;;;0.26;65.87;100898.47;4899005;29;20221;-65
2021/12/23 09:17:50;;;;;;;32.65;20.55;;;0.20;99.90;;;0.13;66.68;100903.19;4899089;29;20183;-63
2021/12/23 09:20:21;;;;;;;32.78;21.23;;;0.20;99.90;;;0.12;66.75;100893.50;4898988;29;20195;-64
2021/12/23 09:22:53;;;;;;;26.33;19.30;;;0.20;99.90;;;0.38;65.87;100886.72;4899156;29;20198;-63
2021/12/23 09:25:29;;;;;;;30.52;21.52;;;0.20;99.90;;;0.48;65.47;100878.75;4899234;29;20213;-63
2021/12/23 09:28:20;;;;;;;34.40;20.38;;;0.40;99.90;;;0.22;65.45;100867.78;4899068;29;20185;-63
2021/12/23 09:33:35;;;;;;;29.27;22.38;;;0.30;99.90;;;0.25;65.56;100863.97;4899965;29;20635;-63
2021/12/23 09:36:05;;;;;;;31.70;20.83;;;0.30;99.90;;;0.12;66.15;100861.59;4898831;29;20699;-65
2021/12/23 09:38:35;;;;;;;30.10;21.83;;;0.20;99.90;;;0.41;66.08;100854.50;4898957;29;20234;-63
2021/12/23 09:41:09;;;;;;;29.67;21.52;;;0.30;99.90;;;0.54;65.78;100850.72;4912225;29;20214;-64
2021/12/23 09:43:40;;;;;;;26.60;20.05;;;0.40;99.90;;;0.44;65.72;100843.56;4898998;29;20250;-64
2021/12/23 09:46:13;;;;;;;32.08;17.60;;;0.50;99.90;;;0.36;65.40;100838.09;4899099;29;20232;-63
2021/12/23 09:48:44;;;;;;;30.55;20.20;;;0.50;99.90;;;0.33;65.55;100822.41;4898722;29;20180;-64
2021/12/23 09:51:15;;;;;;;27.45;18.73;;;0.40;99.90;;;0.35;65.46;100815.13;4899042;29;20696;-66
2021/12/23 09:53:54;;;;;;;29.08;18.63;;;0.40;99.90;;;0.33;65.13;100816.25;4898678;29;20229;-65
2021/12/23 09:56:25;;;;;;;31.30;20.25;;;0.40;99.90;;;0.30;65.81;100806.69;4898167;29;20222;-63
2021/12/23 09:58:56;;;;;;;31.23;21.15;;;0.30;99.90;;;0.56;65.67;100806.16;4898393;29;20694;-63
2021/12/23 10:01:25;;;;;;;36.05;21.83;;;0.50;99.90;;;0.78;64.66;100808.53;4898202;29;20217;-65
2021/12/23 10:03:54;;;;;;;46.92;25.15;;;0.70;99.90;;;0.57;65.28;100810.53;4913010;29;20739;-64
2021/12/23 10:06:24;;;;;;;35.03;23.58;;;0.70;99.90;;;0.47;65.68;100791.03;4898268;29;20281;-64
2021/12/23 10:08:55;;;;;;;29.30;20.58;;;0.50;99.90;;;0.51;66.14;100787.09;4898201;29;20218;-65
2021/12/23 10:11:31;;;;;;;32.80;21.10;;;0.50;99.90;;;0.58;65.09;100780.25;4897983;29;20178;-63
2021/12/23 10:31:11;;;;;;;29.38;19.80;;;0.90;99.90;;;0.71;64.95;100690.25;4898246;29;20210;-64
2021/12/23 10:33:48;;;;;;;31.40;20.20;;;0.80;99.90;;;0.78;64.59;100683.34;4897808;29;20187;-63